sensor_id;sensor_type;location;lat;lon;timestamp;pressure;altitude;pressure_sealevel;temperature;humidity
10806;BME280;5455;53.224;6.000;2023-07-13T00:01:54;101165.91;;;17.73;100.00
10806;BME280;5455;53.224;6.000;2023-07-13T00:04:23;101166.31;;;17.60;100.00
10806;BME280;5455;53.224;6.000;2023-07-13T00:06:53;101173.50;;;17.58;100.00
10806;BME280;5455;53.224;6.000;2023-07-13T00:09:21;101173.88;;;17.49;100.00
10806;BME280;5455;53.224;6.000;2023-07-13T00:11:54;101173.88;;;17.42;100.00
10806;BME280;5455;53.224;6.000;2023-07-13T00:14:22;101174.69;;;17.39;100.00
10806;BME280;5455;53.224;6.000;2023-07-13T00:16:49;101171.47;;;17.37;100.00
10806;BME280;5455;53.224;6.000;2023-07-13T00:19:16;101180.22;;;17.25;100.00
10806;BME280;5455;53.224;6.000;2023-07-13T00:21:44;101183.00;;;17.25;100.00
10806;BME280;5455;53.224;6.000;2023-07-13T00:24:17;101176.63;;;17.28;100.00
10806;BME280;5455;53.224;6.000;2023-07-13T00:26:51;101183.81;;;17.29;100.00
10806;BME280;5455;53.224;6.000;2023-07-13T00:29:18;101181.03;;;17.29;100.00
10806;BME280;5455;53.224;6.000;2023-07-13T00:31:45;101185.41;;;17.27;100.00
10806;BME280;5455;53.224;6.000;2023-07-13T00:34:13;101193.38;;;17.28;100.00
10806;BME280;5455;53.224;6.000;2023-07-13T00:36:40;101190.59;;;17.32;100.00
10806;BME280;5455;53.224;6.000;2023-07-13T00:39:07;101188.59;;;17.32;100.00
10806;BME280;5455;53.224;6.000;2023-07-13T00:41:34;101189.00;;;17.34;100.00
10806;BME280;5455;53.224;6.000;2023-07-13T00:44:03;101182.25;;;17.39;100.00
10806;BME280;5455;53.224;6.000;2023-07-13T00:46:33;101184.22;;;17.35;100.00
10806;BME280;5455;53.224;6.000;2023-07-13T00:49:07;101186.19;;;17.31;100.00
10806;BME280;5455;53.224;6.000;2023-07-13T00:51:48;101179.03;;;17.26;100.00
10806;BME280;5455;53.224;6.000;2023-07-13T00:54:30;101185.41;;;17.23;100.00
10806;BME280;5455;53.224;6.000;2023-07-13T00:57:02;101186.59;;;17.22;100.00
10806;BME280;5455;53.224;6.000;2023-07-13T00:59:31;101180.63;;;17.20;100.00
10806;BME280;5455;53.224;6.000;2023-07-13T01:01:58;101185.00;;;17.18;100.00
10806;BME280;5455;53.224;6.000;2023-07-13T01:04:27;101183.00;;;17.15;100.00
10806;BME280;5455;53.224;6.000;2023-07-13T01:06:54;101180.22;;;17.15;100.00
10806;BME280;5455;53.224;6.000;2023-07-13T01:09:23;101184.19;;;17.14;100.00
10806;BME280;5455;53.224;6.000;2023-07-13T01:11:50;101178.63;;;17.14;100.00
10806;BME280;5455;53.224;6.000;2023-07-13T01:14:17;101180.59;;;17.17;100.00
10806;BME280;5455;53.224;6.000;2023-07-13T01:16:45;101186.19;;;17.17;100.00
10806;BME280;5455;53.224;6.000;2023-07-13T01:19:21;101190.16;;;17.16;100.00
10806;BME280;5455;53.224;6.000;2023-07-13T01:21:52;101176.63;;;17.14;100.00
10806;BME280;5455;53.224;6.000;2023-07-13T01:24:19;101184.59;;;17.12;100.00
10806;BME280;5455;53.224;6.000;2023-07-13T01:26:48;101175.00;;;17.09;100.00
10806;BME280;5455;53.224;6.000;2023-07-13T01:29:15;101191.75;;;17.06;100.00
10806;BME280;5455;53.224;6.000;2023-07-13T01:31:42;101190.94;;;17.02;100.00
10806;BME280;5455;53.224;6.000;2023-07-13T01:34:11;101189.34;;;17.01;100.00
10806;BME280;5455;53.224;6.000;2023-07-13T01:36:38;101187.31;;;16.94;100.00
10806;BME280;5455;53.224;6.000;2023-07-13T01:39:06;101175.78;;;16.89;100.00
10806;BME280;5455;53.224;6.000;2023-07-13T01:41:34;101177.34;;;16.83;100.00
10806;BME280;5455;53.224;6.000;2023-07-13T01:44:01;101182.91;;;16.76;100.00
10806;BME280;5455;53.224;6.000;2023-07-13T01:46:30;101182.88;;;16.72;100.00
10806;BME280;5455;53.224;6.000;2023-07-13T01:48:57;101180.88;;;16.66;100.00
10806;BME280;5455;53.224;6.000;2023-07-13T01:51:24;101180.47;;;16.71;100.00
10806;BME280;5455;53.224;6.000;2023-07-13T01:53:51;101190.41;;;16.65;100.00
10806;BME280;5455;53.224;6.000;2023-07-13T01:56:18;101181.28;;;16.71;100.00
10806;BME280;5455;53.224;6.000;2023-07-13T01:58:46;101178.16;;;16.76;100.00
10806;BME280;5455;53.224;6.000;2023-07-13T02:01:13;101175.34;;;16.76;100.00
10806;BME280;5455;53.224;6.000;2023-07-13T02:03:40;101176.56;;;16.79;100.00
10806;BME280;5455;53.224;6.000;2023-07-13T02:06:07;101175.34;;;16.76;100.00
10806;BME280;5455;53.224;6.000;2023-07-13T02:08:35;101184.47;;;16.77;100.00
10806;BME280;5455;53.224;6.000;2023-07-13T02:11:03;101183.72;;;16.76;100.00
10806;BME280;5455;53.224;6.000;2023-07-13T02:13:30;101177.72;;;16.78;100.00
10806;BME280;5455;53.224;6.000;2023-07-13T02:15:57;101179.31;;;16.75;100.00
10806;BME280;5455;53.224;6.000;2023-07-13T02:18:24;101181.69;;;16.77;100.00
10806;BME280;5455;53.224;6.000;2023-07-13T02:20:51;101177.72;;;16.78;100.00
10806;BME280;5455;53.224;6.000;2023-07-13T02:23:18;101179.31;;;16.75;100.00
10806;BME280;5455;53.224;6.000;2023-07-13T02:25:46;101176.91;;;16.74;100.00
10806;BME280;5455;53.224;6.000;2023-07-13T02:28:15;101177.31;;;16.69;100.00
10806;BME280;5455;53.224;6.000;2023-07-13T02:30:42;101176.91;;;16.63;100.00
10806;BME280;5455;53.224;6.000;2023-07-13T02:33:09;101169.69;;;16.59;100.00
10806;BME280;5455;53.224;6.000;2023-07-13T02:35:36;101176.50;;;16.61;100.00
10806;BME280;5455;53.224;6.000;2023-07-13T02:38:03;101169.69;;;16.59;100.00
10806;BME280;5455;53.224;6.000;2023-07-13T02:40:30;101175.28;;;16.62;100.00
10806;BME280;5455;53.224;6.000;2023-07-13T02:42:59;101173.31;;;16.63;100.00
10806;BME280;5455;53.224;6.000;2023-07-13T02:45:27;101177.28;;;16.65;100.00
10806;BME280;5455;53.224;6.000;2023-07-13T02:47:54;101175.72;;;16.71;100.00
10806;BME280;5455;53.224;6.000;2023-07-13T02:50:21;101181.69;;;16.77;100.00
10806;BME280;5455;53.224;6.000;2023-07-13T02:52:48;101179.34;;;16.86;100.00
10806;BME280;5455;53.224;6.000;2023-07-13T02:55:16;101184.50;;;16.80;100.00
10806;BME280;5455;53.224;6.000;2023-07-13T02:57:43;101183.69;;;16.80;100.00
10806;BME280;5455;53.224;6.000;2023-07-13T03:00:10;101187.66;;;16.72;100.00
10806;BME280;5455;53.224;6.000;2023-07-13T03:02:37;101194.44;;;16.74;100.00
10806;BME280;5455;53.224;6.000;2023-07-13T03:05:04;101192.06;;;16.73;100.00
10806;BME280;5455;53.224;6.000;2023-07-13T03:07:32;101186.44;;;16.66;100.00
10806;BME280;5455;53.224;6.000;2023-07-13T03:09:59;101186.41;;;16.62;100.00
10806;BME280;5455;53.224;6.000;2023-07-13T03:12:36;101182.41;;;16.56;100.00
10806;BME280;5455;53.224;6.000;2023-07-13T03:15:06;101191.50;;;16.49;100.00
10806;BME280;5455;53.224;6.000;2023-07-13T03:17:37;101185.94;;;16.46;100.00
10806;BME280;5455;53.224;6.000;2023-07-13T03:20:05;101191.88;;;16.44;100.00
10806;BME280;5455;53.224;6.000;2023-07-13T03:22:33;101186.69;;;16.39;100.00
10806;BME280;5455;53.224;6.000;2023-07-13T03:25:01;101191.84;;;16.37;100.00
10806;BME280;5455;53.224;6.000;2023-07-13T03:27:28;101195.00;;;16.32;100.00
10806;BME280;5455;53.224;6.000;2023-07-13T03:29:55;101194.59;;;16.27;100.00
10806;BME280;5455;53.224;6.000;2023-07-13T03:32:22;101189.41;;;16.22;100.00
10806;BME280;5455;53.224;6.000;2023-07-13T03:34:49;101201.66;;;16.10;100.00
10806;BME280;5455;53.224;6.000;2023-07-13T03:37:16;101198.91;;;16.17;100.00
10806;BME280;5455;53.224;6.000;2023-07-13T03:39:43;101199.28;;;16.12;100.00
10806;BME280;5455;53.224;6.000;2023-07-13T03:42:11;101200.06;;;16.13;100.00
10806;BME280;5455;53.224;6.000;2023-07-13T03:44:39;101200.88;;;16.17;100.00
10806;BME280;5455;53.224;6.000;2023-07-13T03:47:07;101210.81;;;16.18;100.00
10806;BME280;5455;53.224;6.000;2023-07-13T03:49:35;101206.44;;;16.13;100.00
10806;BME280;5455;53.224;6.000;2023-07-13T03:52:02;101200.44;;;16.11;100.00
10806;BME280;5455;53.224;6.000;2023-07-13T03:54:29;101211.94;;;16.06;100.00
10806;BME280;5455;53.224;6.000;2023-07-13T03:56:56;101214.34;;;16.11;100.00
10806;BME280;5455;53.224;6.000;2023-07-13T03:59:23;101212.34;;;16.08;100.00
10806;BME280;5455;53.224;6.000;2023-07-13T04:01:51;101215.56;;;16.10;100.00
10806;BME280;5455;53.224;6.000;2023-07-13T04:04:18;101210.78;;;16.07;100.00
10806;BME280;5455;53.224;6.000;2023-07-13T04:06:45;101230.66;;;16.09;100.00
10806;BME280;5455;53.224;6.000;2023-07-13T04:09:12;101215.13;;;16.08;100.00
10806;BME280;5455;53.224;6.000;2023-07-13T04:11:39;101223.56;;;16.19;100.00
10806;BME280;5455;53.224;6.000;2023-07-13T04:14:06;101221.22;;;16.24;100.00
10806;BME280;5455;53.224;6.000;2023-07-13T04:16:33;101218.44;;;16.24;100.00
10806;BME280;5455;53.224;6.000;2023-07-13T04:19:01;101224.38;;;16.26;100.00
10806;BME280;5455;53.224;6.000;2023-07-13T04:21:30;101227.97;;;16.27;100.00
10806;BME280;5455;53.224;6.000;2023-07-13T04:23:57;101228.34;;;16.22;100.00
10806;BME280;5455;53.224;6.000;2023-07-13T04:26:25;101236.69;;;16.22;100.00
10806;BME280;5455;53.224;6.000;2023-07-13T04:28:52;101232.34;;;16.24;100.00
10806;BME280;5455;53.224;6.000;2023-07-13T04:31:20;101227.16;;;16.26;100.00
10806;BME280;5455;53.224;6.000;2023-07-13T04:33:48;101236.38;;;16.34;100.00
10806;BME280;5455;53.224;6.000;2023-07-13T04:36:16;101237.59;;;16.36;100.00
10806;BME280;5455;53.224;6.000;2023-07-13T04:38:43;101241.16;;;16.37;100.00
10806;BME280;5455;53.224;6.000;2023-07-13T04:41:13;101237.97;;;16.38;100.00
10806;BME280;5455;53.224;6.000;2023-07-13T04:43:41;101236.81;;;16.43;100.00
10806;BME280;5455;53.224;6.000;2023-07-13T04:46:11;101239.59;;;16.46;100.00
10806;BME280;5455;53.224;6.000;2023-07-13T04:48:39;101247.97;;;16.46;100.00
10806;BME280;5455;53.224;6.000;2023-07-13T04:51:06;101249.97;;;16.49;100.00
10806;BME280;5455;53.224;6.000;2023-07-13T04:53:34;101261.13;;;16.53;100.00
10806;BME280;5455;53.224;6.000;2023-07-13T04:56:02;101255.97;;;16.51;100.00
10806;BME280;5455;53.224;6.000;2023-07-13T04:58:29;101269.94;;;16.59;100.00
10806;BME280;5455;53.224;6.000;2023-07-13T05:01:01;101263.19;;;16.60;100.00
10806;BME280;5455;53.224;6.000;2023-07-13T05:03:28;101268.81;;;16.67;100.00
10806;BME280;5455;53.224;6.000;2023-07-13T05:06:04;101275.16;;;16.71;100.00
10806;BME280;5455;53.224;6.000;2023-07-13T05:08:31;101283.16;;;16.76;100.00
10806;BME280;5455;53.224;6.000;2023-07-13T05:11:03;101281.59;;;16.82;100.00
10806;BME280;5455;53.224;6.000;2023-07-13T05:13:30;101270.47;;;16.82;100.00
10806;BME280;5455;53.224;6.000;2023-07-13T05:16:00;101282.03;;;16.94;100.00
10806;BME280;5455;53.224;6.000;2023-07-13T05:18:27;101287.28;;;17.03;100.00
10806;BME280;5455;53.224;6.000;2023-07-13T05:21:02;101294.06;;;17.09;100.00
10806;BME280;5455;53.224;6.000;2023-07-13T05:23:30;101292.50;;;17.15;100.00
10806;BME280;5455;53.224;6.000;2023-07-13T05:25:58;101294.09;;;17.23;100.00
10806;BME280;5455;53.224;6.000;2023-07-13T05:28:26;101301.72;;;17.33;100.00
10806;BME280;5455;53.224;6.000;2023-07-13T05:30:54;101294.56;;;17.39;100.00
10806;BME280;5455;53.224;6.000;2023-07-13T05:33:23;101298.16;;;17.47;100.00
10806;BME280;5455;53.224;6.000;2023-07-13T05:35:51;101306.16;;;17.55;100.00
10806;BME280;5455;53.224;6.000;2023-07-13T05:38:18;101310.97;;;17.62;100.00
10806;BME280;5455;53.224;6.000;2023-07-13T05:40:45;101303.38;;;17.70;100.00
10806;BME280;5455;53.224;6.000;2023-07-13T05:43:13;101308.59;;;17.75;100.00
10806;BME280;5455;53.224;6.000;2023-07-13T05:45:41;101313.75;;;17.80;100.00
10806;BME280;5455;53.224;6.000;2023-07-13T05:48:08;101306.59;;;17.86;100.00
10806;BME280;5455;53.224;6.000;2023-07-13T05:50:35;101305.44;;;17.90;100.00
10806;BME280;5455;53.224;6.000;2023-07-13T05:53:02;101309.78;;;17.95;100.00
10806;BME280;5455;53.224;6.000;2023-07-13T05:55:29;101310.19;;;18.00;100.00
10806;BME280;5455;53.224;6.000;2023-07-13T05:57:57;101312.19;;;18.00;100.00
10806;BME280;5455;53.224;6.000;2023-07-13T06:00:25;101313.38;;;18.09;100.00
10806;BME280;5455;53.224;6.000;2023-07-13T06:02:52;101315.78;;;18.18;100.00
10806;BME280;5455;53.224;6.000;2023-07-13T06:05:20;101320.16;;;18.19;100.00
10806;BME280;5455;53.224;6.000;2023-07-13T06:07:46;101322.53;;;18.21;100.00
10806;BME280;5455;53.224;6.000;2023-07-13T06:10:13;101318.16;;;18.30;100.00
10806;BME280;5455;53.224;6.000;2023-07-13T06:12:40;101315.38;;;18.37;100.00
10806;BME280;5455;53.224;6.000;2023-07-13T06:15:07;101330.91;;;18.42;100.00
10806;BME280;5455;53.224;6.000;2023-07-13T06:17:34;101321.38;;;18.53;100.00
10806;BME280;5455;53.224;6.000;2023-07-13T06:20:01;101332.13;;;18.58;100.00
10806;BME280;5455;53.224;6.000;2023-07-13T06:22:28;101322.94;;;18.65;100.00
10806;BME280;5455;53.224;6.000;2023-07-13T06:24:56;101337.72;;;18.65;100.00
10806;BME280;5455;53.224;6.000;2023-07-13T06:27:23;101331.31;;;18.68;100.00
10806;BME280;5455;53.224;6.000;2023-07-13T06:29:50;101337.69;;;18.69;100.00
10806;BME280;5455;53.224;6.000;2023-07-13T06:32:17;101335.31;;;18.71;100.00
10806;BME280;5455;53.224;6.000;2023-07-13T06:34:44;101336.47;;;18.77;100.00
10806;BME280;5455;53.224;6.000;2023-07-13T06:37:11;101335.69;;;18.80;100.00
10806;BME280;5455;53.224;6.000;2023-07-13T06:39:38;101345.19;;;18.90;100.00
10806;BME280;5455;53.224;6.000;2023-07-13T06:42:05;101351.16;;;19.02;100.00
10806;BME280;5455;53.224;6.000;2023-07-13T06:44:32;101359.91;;;19.11;100.00
10806;BME280;5455;53.224;6.000;2023-07-13T06:46:59;101357.94;;;19.08;100.00
10806;BME280;5455;53.224;6.000;2023-07-13T06:49:26;101356.75;;;19.06;100.00
10806;BME280;5455;53.224;6.000;2023-07-13T06:51:53;101354.69;;;19.20;100.00
10806;BME280;5455;53.224;6.000;2023-07-13T06:54:21;101358.63;;;19.34;100.00
10806;BME280;5455;53.224;6.000;2023-07-13T06:56:48;101354.22;;;19.43;100.00
10806;BME280;5455;53.224;6.000;2023-07-13T06:59:15;101361.28;;;19.65;100.00
10806;BME280;5455;53.224;6.000;2023-07-13T07:01:42;101357.66;;;19.75;100.00
10806;BME280;5455;53.224;6.000;2023-07-13T07:04:09;101359.31;;;19.62;100.00
10806;BME280;5455;53.224;6.000;2023-07-13T07:06:36;101367.38;;;19.50;100.00
10806;BME280;5455;53.224;6.000;2023-07-13T07:09:03;101371.31;;;19.59;100.00
10806;BME280;5455;53.224;6.000;2023-07-13T07:11:30;101371.63;;;19.75;100.00
10806;BME280;5455;53.224;6.000;2023-07-13T07:13:57;101379.53;;;19.95;100.00
10806;BME280;5455;53.224;6.000;2023-07-13T07:16:24;101391.34;;;20.16;100.00
10806;BME280;5455;53.224;6.000;2023-07-13T07:18:51;101384.50;;;20.24;100.00
10806;BME280;5455;53.224;6.000;2023-07-13T07:21:18;101383.31;;;20.25;100.00
10806;BME280;5455;53.224;6.000;2023-07-13T07:23:45;101399.38;;;20.14;100.00
10806;BME280;5455;53.224;6.000;2023-07-13T07:26:12;101383.03;;;20.09;100.00
10806;BME280;5455;53.224;6.000;2023-07-13T07:28:39;101394.25;;;20.06;100.00
10806;BME280;5455;53.224;6.000;2023-07-13T07:31:12;101391.44;;;20.06;100.00
10806;BME280;5455;53.224;6.000;2023-07-13T07:33:42;101387.38;;;20.14;100.00
10806;BME280;5455;53.224;6.000;2023-07-13T07:36:10;101392.34;;;20.47;100.00
10806;BME280;5455;53.224;6.000;2023-07-13T07:38:41;101392.94;;;21.10;100.00
10806;BME280;5455;53.224;6.000;2023-07-13T07:41:08;101394.75;;;21.57;100.00
10806;BME280;5455;53.224;6.000;2023-07-13T07:43:38;101392.97;;;21.70;100.00
10806;BME280;5455;53.224;6.000;2023-07-13T07:46:05;101387.59;;;21.53;100.00
10806;BME280;5455;53.224;6.000;2023-07-13T07:48:33;101396.44;;;21.51;100.00
10806;BME280;5455;53.224;6.000;2023-07-13T07:51:00;101403.38;;;21.73;100.00
10806;BME280;5455;53.224;6.000;2023-07-13T07:53:27;101400.19;;;21.71;100.00
10806;BME280;5455;53.224;6.000;2023-07-13T07:55:56;101403.97;;;21.58;100.00
10806;BME280;5455;53.224;6.000;2023-07-13T07:58:43;101403.50;;;21.32;100.00
10806;BME280;5455;53.224;6.000;2023-07-13T08:01:14;101398.41;;;21.24;100.00
10806;BME280;5455;53.224;6.000;2023-07-13T08:03:43;101394.47;;;21.18;100.00
10806;BME280;5455;53.224;6.000;2023-07-13T08:06:13;101399.34;;;21.07;100.00
10806;BME280;5455;53.224;6.000;2023-07-13T08:09:00;101394.50;;;20.73;100.00
10806;BME280;5455;53.224;6.000;2023-07-13T08:11:29;101390.72;;;20.46;100.00
10806;BME280;5455;53.224;6.000;2023-07-13T08:13:58;101382.00;;;20.37;100.00
10806;BME280;5455;53.224;6.000;2023-07-13T08:16:26;101391.97;;;20.45;100.00
10806;BME280;5455;53.224;6.000;2023-07-13T08:18:53;101393.31;;;20.71;100.00
10806;BME280;5455;53.224;6.000;2023-07-13T08:21:20;101397.47;;;20.97;100.00
10806;BME280;5455;53.224;6.000;2023-07-13T08:23:47;101392.03;;;21.20;100.00
10806;BME280;5455;53.224;6.000;2023-07-13T08:26:14;101394.97;;;21.06;100.00
10806;BME280;5455;53.224;6.000;2023-07-13T08:28:42;101401.88;;;21.35;100.00
10806;BME280;5455;53.224;6.000;2023-07-13T08:31:10;101396.38;;;21.88;100.00
10806;BME280;5455;53.224;6.000;2023-07-13T08:33:37;101409.41;;;22.29;100.00
10806;BME280;5455;53.224;6.000;2023-07-13T08:36:05;101409.91;;;22.47;99.13
10806;BME280;5455;53.224;6.000;2023-07-13T08:38:32;101407.66;;;22.62;95.39
10806;BME280;5455;53.224;6.000;2023-07-13T08:41:03;101419.06;;;22.51;96.88
10806;BME280;5455;53.224;6.000;2023-07-13T08:43:37;101412.41;;;22.15;89.29
10806;BME280;5455;53.224;6.000;2023-07-13T08:46:07;101406.75;;;21.91;90.79
10806;BME280;5455;53.224;6.000;2023-07-13T08:48:40;101416.84;;;21.85;89.19
10806;BME280;5455;53.224;6.000;2023-07-13T08:51:33;101418.69;;;21.69;91.11
10806;BME280;5455;53.224;6.000;2023-07-13T08:54:07;101413.91;;;21.66;90.66
10806;BME280;5455;53.224;6.000;2023-07-13T08:56:36;101414.91;;;21.79;92.91
10806;BME280;5455;53.224;6.000;2023-07-13T08:59:14;101406.53;;;22.06;84.34
10806;BME280;5455;53.224;6.000;2023-07-13T09:01:59;101419.97;;;22.44;78.51
10806;BME280;5455;53.224;6.000;2023-07-13T09:04:34;101421.75;;;23.04;77.05
10806;BME280;5455;53.224;6.000;2023-07-13T09:09:55;101421.13;;;23.36;74.34
10806;BME280;5455;53.224;6.000;2023-07-13T09:12:31;101427.06;;;23.22;72.44
10806;BME280;5455;53.224;6.000;2023-07-13T09:15:02;101418.00;;;23.11;74.40
10806;BME280;5455;53.224;6.000;2023-07-13T09:17:41;101434.31;;;23.20;73.80
10806;BME280;5455;53.224;6.000;2023-07-13T09:20:45;101437.50;;;23.22;69.68
10806;BME280;5455;53.224;6.000;2023-07-13T09:23:20;101444.63;;;23.07;71.14
10806;BME280;5455;53.224;6.000;2023-07-13T09:25:49;101450.38;;;22.99;69.37
10806;BME280;5455;53.224;6.000;2023-07-13T09:28:29;101458.44;;;22.74;69.89
10806;BME280;5455;53.224;6.000;2023-07-13T09:31:20;101449.16;;;22.01;71.47
10806;BME280;5455;53.224;6.000;2023-07-13T09:33:50;101444.06;;;21.92;77.81
10806;BME280;5455;53.224;6.000;2023-07-13T09:38:47;101455.91;;;22.57;79.46
10806;BME280;5455;53.224;6.000;2023-07-13T09:41:26;101460.66;;;22.36;74.13
10806;BME280;5455;53.224;6.000;2023-07-13T09:46:43;101462.91;;;21.91;74.84
10806;BME280;5455;53.224;6.000;2023-07-13T09:49:11;101462.78;;;22.29;75.06
10806;BME280;5455;53.224;6.000;2023-07-13T09:51:40;101471.53;;;22.84;73.44
10806;BME280;5455;53.224;6.000;2023-07-13T09:54:22;101469.97;;;23.26;66.40
10806;BME280;5455;53.224;6.000;2023-07-13T09:56:59;101474.31;;;23.31;64.34
10806;BME280;5455;53.224;6.000;2023-07-13T09:59:32;101474.81;;;23.49;63.73
10806;BME280;5455;53.224;6.000;2023-07-13T10:01:59;101469.91;;;23.30;64.15
10806;BME280;5455;53.224;6.000;2023-07-13T10:04:34;101474.16;;;23.38;64.48
10806;BME280;5455;53.224;6.000;2023-07-13T10:07:12;101481.34;;;23.62;62.75
10806;BME280;5455;53.224;6.000;2023-07-13T10:09:56;101480.16;;;23.63;63.71
10806;BME280;5455;53.224;6.000;2023-07-13T10:12:24;101488.00;;;23.72;61.53
10806;BME280;5455;53.224;6.000;2023-07-13T10:14:56;101490.09;;;23.87;63.48
10806;BME280;5455;53.224;6.000;2023-07-13T10:17:43;101481.47;;;23.94;62.61
10806;BME280;5455;53.224;6.000;2023-07-13T10:20:11;101487.16;;;23.32;62.71
10806;BME280;5455;53.224;6.000;2023-07-13T10:25:24;101493.53;;;23.36;65.59
10806;BME280;5455;53.224;6.000;2023-07-13T10:27:55;101498.19;;;23.66;64.48
10806;BME280;5455;53.224;6.000;2023-07-13T10:30:30;101496.16;;;23.66;63.42
10806;BME280;5455;53.224;6.000;2023-07-13T10:33:02;101500.66;;;23.64;64.23
10806;BME280;5455;53.224;6.000;2023-07-13T10:35:31;101505.91;;;23.19;61.59
10806;BME280;5455;53.224;6.000;2023-07-13T10:38:02;101499.28;;;22.59;62.96
10806;BME280;5455;53.224;6.000;2023-07-13T10:43:31;101502.81;;;22.36;65.57
10806;BME280;5455;53.224;6.000;2023-07-13T10:46:01;101502.97;;;22.79;65.72
10806;BME280;5455;53.224;6.000;2023-07-13T10:48:29;101491.22;;;23.08;65.21
10806;BME280;5455;53.224;6.000;2023-07-13T10:50:59;101503.22;;;22.88;60.66
10806;BME280;5455;53.224;6.000;2023-07-13T10:53:46;101505.34;;;22.81;61.71
10806;BME280;5455;53.224;6.000;2023-07-13T10:56:28;101513.22;;;23.36;63.80
10806;BME280;5455;53.224;6.000;2023-07-13T11:01:50;101524.09;;;23.77;62.18
10806;BME280;5455;53.224;6.000;2023-07-13T11:04:20;101508.59;;;23.88;62.94
10806;BME280;5455;53.224;6.000;2023-07-13T11:06:50;101525.53;;;24.04;63.34
10806;BME280;5455;53.224;6.000;2023-07-13T11:11:45;101526.56;;;23.75;61.92
10806;BME280;5455;53.224;6.000;2023-07-13T11:14:41;101530.75;;;23.86;63.16
10806;BME280;5455;53.224;6.000;2023-07-13T11:17:33;101529.38;;;23.55;61.31
10806;BME280;5455;53.224;6.000;2023-07-13T11:33:48;101533.00;;;23.95;61.04
10806;BME280;5455;53.224;6.000;2023-07-13T11:36:18;101535.22;;;24.03;60.50
10806;BME280;5455;53.224;6.000;2023-07-13T11:39:04;101538.06;;;24.23;61.09
10806;BME280;5455;53.224;6.000;2023-07-13T11:41:35;101535.03;;;23.75;58.34
10806;BME280;5455;53.224;6.000;2023-07-13T11:46:34;101536.38;;;23.86;58.83
10806;BME280;5455;53.224;6.000;2023-07-13T11:49:05;101531.75;;;24.35;58.27
10806;BME280;5455;53.224;6.000;2023-07-13T11:51:34;101540.72;;;24.82;59.12
10806;BME280;5455;53.224;6.000;2023-07-13T11:54:14;101547.22;;;24.79;55.72
10806;BME280;5455;53.224;6.000;2023-07-13T11:56:43;101548.47;;;23.87;55.46
10806;BME280;5455;53.224;6.000;2023-07-13T11:59:11;101555.56;;;23.29;57.92
10806;BME280;5455;53.224;6.000;2023-07-13T12:01:53;101560.16;;;22.96;58.85
10806;BME280;5455;53.224;6.000;2023-07-13T12:04:28;101559.94;;;22.83;62.58
10806;BME280;5455;53.224;6.000;2023-07-13T12:07:05;101562.91;;;22.99;69.09
10806;BME280;5455;53.224;6.000;2023-07-13T12:09:33;101554.56;;;22.92;72.60
10806;BME280;5455;53.224;6.000;2023-07-13T12:12:00;101562.94;;;22.42;75.80
10806;BME280;5455;53.224;6.000;2023-07-13T12:14:27;101557.38;;;22.39;80.97
10806;BME280;5455;53.224;6.000;2023-07-13T12:16:55;101563.25;;;22.21;81.74
10806;BME280;5455;53.224;6.000;2023-07-13T12:19:25;101556.56;;;22.08;85.10
10806;BME280;5455;53.224;6.000;2023-07-13T12:21:56;101564.81;;;22.26;88.07
10806;BME280;5455;53.224;6.000;2023-07-13T12:24:25;101565.25;;;22.21;86.44
10806;BME280;5455;53.224;6.000;2023-07-13T12:27:02;101549.78;;;22.06;86.55
10806;BME280;5455;53.224;6.000;2023-07-13T12:29:32;101559.53;;;21.98;88.27
10806;BME280;5455;53.224;6.000;2023-07-13T12:31:59;101562.06;;;21.88;86.40
10806;BME280;5455;53.224;6.000;2023-07-13T12:34:26;101562.91;;;21.82;86.51
10806;BME280;5455;53.224;6.000;2023-07-13T12:37:01;101564.38;;;21.60;85.74
10806;BME280;5455;53.224;6.000;2023-07-13T12:39:37;101565.63;;;21.52;86.45
10806;BME280;5455;53.224;6.000;2023-07-13T12:44:43;101558.91;;;21.42;88.35
10806;BME280;5455;53.224;6.000;2023-07-13T12:47:13;101568.78;;;21.57;85.55
10806;BME280;5455;53.224;6.000;2023-07-13T12:49:43;101569.69;;;21.47;83.78
10806;BME280;5455;53.224;6.000;2023-07-13T12:52:31;101580.28;;;21.29;82.35
10806;BME280;5455;53.224;6.000;2023-07-13T12:55:13;101572.03;;;21.08;81.86
10806;BME280;5455;53.224;6.000;2023-07-13T12:57:49;101576.19;;;20.85;82.88
10806;BME280;5455;53.224;6.000;2023-07-13T13:00:29;101574.19;;;20.89;85.76
10806;BME280;5455;53.224;6.000;2023-07-13T13:08:49;101582.47;;;21.92;76.24
10806;BME280;5455;53.224;6.000;2023-07-13T13:11:17;101593.66;;;21.55;78.55
10806;BME280;5455;53.224;6.000;2023-07-13T13:13:45;101591.69;;;21.52;78.29
10806;BME280;5455;53.224;6.000;2023-07-13T13:18:56;101600.28;;;22.43;78.91
10806;BME280;5455;53.224;6.000;2023-07-13T13:21:24;101594.28;;;22.11;76.13
10806;BME280;5455;53.224;6.000;2023-07-13T13:23:52;101598.66;;;21.78;75.24
10806;BME280;5455;53.224;6.000;2023-07-13T13:26:22;101601.59;;;22.05;74.84
10806;BME280;5455;53.224;6.000;2023-07-13T13:28:54;101615.63;;;22.69;75.04
10806;BME280;5455;53.224;6.000;2023-07-13T13:31:26;101616.03;;;23.21;72.22
10806;BME280;5455;53.224;6.000;2023-07-13T13:33:53;101613.03;;;23.78;71.08
10806;BME280;5455;53.224;6.000;2023-07-13T13:36:23;101617.50;;;23.95;68.27
10806;BME280;5455;53.224;6.000;2023-07-13T13:38:50;101614.81;;;23.68;67.89
10806;BME280;5455;53.224;6.000;2023-07-13T13:41:34;101612.19;;;23.57;68.85
10806;BME280;5455;53.224;6.000;2023-07-13T13:44:02;101615.41;;;23.33;64.62
10806;BME280;5455;53.224;6.000;2023-07-13T13:46:34;101613.66;;;22.92;67.31
10806;BME280;5455;53.224;6.000;2023-07-13T13:49:18;101606.16;;;23.09;67.72
10806;BME280;5455;53.224;6.000;2023-07-13T13:51:53;101617.88;;;23.31;63.51
10806;BME280;5455;53.224;6.000;2023-07-13T13:54:26;101626.44;;;23.47;64.61